createdAt,value
2023-05-14T00:02:23.749Z,101595.44
2023-05-14T00:05:11.241Z,101597.19
2023-05-14T00:07:57.938Z,101591.78
2023-05-14T00:10:44.955Z,101588.31
2023-05-14T00:13:31.780Z,101590.16
2023-05-14T00:16:19.971Z,101591.66
2023-05-14T00:19:06.859Z,101587.47
2023-05-14T00:21:53.425Z,101590.09
2023-05-14T00:24:40.487Z,101586.34
2023-05-14T00:27:27.502Z,101590.78
2023-05-14T00:30:15.203Z,101583.78
2023-05-14T00:33:05.044Z,101579.97
2023-05-14T00:35:57.343Z,101582.59
2023-05-14T00:38:44.674Z,101585.25
2023-05-14T00:41:31.457Z,101574.56
2023-05-14T00:44:18.312Z,101569.38
2023-05-14T00:47:08.000Z,101575.69
2023-05-14T00:49:56.404Z,101560.91
2023-05-14T00:52:43.831Z,101572.34
2023-05-14T00:55:32.091Z,101572.97
2023-05-14T00:58:19.757Z,101573.06
2023-05-14T01:01:06.545Z,101564.47
2023-05-14T01:03:54.373Z,101571.53
2023-05-14T01:06:52.071Z,101570.63
2023-05-14T01:09:45.711Z,101571.66
2023-05-14T01:12:39.591Z,101572.63
2023-05-14T01:15:30.894Z,101547.41
2023-05-14T01:18:20.864Z,101577.94
2023-05-14T01:21:21.290Z,101575.38
2023-05-14T01:24:09.800Z,101576.50
2023-05-14T01:27:02.718Z,101577.41
2023-05-14T01:29:54.486Z,101570.84
2023-05-14T01:32:41.729Z,101573.56
2023-05-14T01:35:30.677Z,101579.88
2023-05-14T01:38:20.097Z,101568.47
2023-05-14T01:41:08.755Z,101568.41
2023-05-14T01:43:55.950Z,101560.63
2023-05-14T01:46:42.682Z,101555.25
2023-05-14T01:49:29.345Z,101552.50
2023-05-14T01:52:16.274Z,101557.00
2023-05-14T01:55:05.410Z,101554.53
2023-05-14T01:57:53.578Z,101549.31
2023-05-14T02:00:41.156Z,101545.97
2023-05-14T02:03:27.881Z,101550.47
2023-05-14T02:06:14.801Z,101546.09
2023-05-14T02:09:01.451Z,101542.69
2023-05-14T02:11:48.298Z,101539.97
2023-05-14T02:14:36.486Z,101535.56
2023-05-14T02:17:23.245Z,101539.69
2023-05-14T02:20:11.328Z,101549.38
2023-05-14T02:22:57.903Z,101539.66
2023-05-14T02:25:45.947Z,101542.50
2023-05-14T02:28:32.560Z,101543.19
2023-05-14T02:31:21.046Z,101542.16
2023-05-14T02:34:07.851Z,101523.13
2023-05-14T02:36:54.578Z,101535.91
2023-05-14T02:39:41.710Z,101536.88
2023-05-14T02:42:28.516Z,101536.22
2023-05-14T02:45:15.344Z,101531.09
2023-05-14T02:48:03.670Z,101534.84
2023-05-14T02:50:51.555Z,101534.59
2023-05-14T02:53:38.374Z,101530.97
2023-05-14T02:56:25.106Z,101538.94
2023-05-14T02:59:12.104Z,101537.88
2023-05-14T03:01:59.454Z,101543.06
2023-05-14T03:04:48.386Z,101536.97
2023-05-14T03:07:35.257Z,101539.38
2023-05-14T03:10:22.397Z,101539.06
2023-05-14T03:13:09.488Z,101539.94
2023-05-14T03:15:57.047Z,101537.28
2023-05-14T03:18:44.070Z,101546.28
2023-05-14T03:21:32.676Z,101548.16
2023-05-14T03:24:19.233Z,101543.66
2023-05-14T03:27:06.546Z,101549.72
2023-05-14T03:29:53.796Z,101538.81
2023-05-14T03:32:41.425Z,101537.84
2023-05-14T03:35:28.087Z,101539.53
2023-05-14T03:38:16.462Z,101532.25
2023-05-14T03:41:06.862Z,101535.63
2023-05-14T03:43:53.849Z,101531.13
2023-05-14T03:46:40.358Z,101530.09
2023-05-14T03:49:27.289Z,101528.28
2023-05-14T03:52:14.610Z,101528.03
2023-05-14T03:55:05.661Z,101453.25
2023-05-14T03:57:51.981Z,101535.25
2023-05-14T04:00:38.807Z,101529.53
2023-05-14T04:03:25.741Z,101522.13
2023-05-14T04:06:12.564Z,101523.47
2023-05-14T04:08:59.497Z,101518.81
2023-05-14T04:11:47.598Z,101523.16
2023-05-14T04:14:34.440Z,101521.47
2023-05-14T04:17:21.293Z,101522.50
2023-05-14T04:20:09.850Z,101506.78
2023-05-14T04:22:56.410Z,101514.66
2023-05-14T04:25:44.078Z,101506.28
2023-05-14T04:28:32.870Z,101510.25
2023-05-14T04:31:20.603Z,101500.59
2023-05-14T04:34:08.497Z,101508.25
2023-05-14T04:36:56.021Z,101503.00
2023-05-14T04:39:44.186Z,101471.50
2023-05-14T04:42:31.919Z,101498.75
2023-05-14T04:45:21.480Z,101507.25
2023-05-14T04:48:10.069Z,101494.81
2023-05-14T04:50:58.383Z,101501.44
2023-05-14T04:53:46.880Z,101497.22
2023-05-14T04:56:34.179Z,101495.72
2023-05-14T04:59:21.458Z,101493.81
2023-05-14T05:02:09.882Z,101493.78
2023-05-14T05:04:56.875Z,101489.38
2023-05-14T05:07:43.567Z,101495.00
2023-05-14T05:10:30.394Z,101488.44
2023-05-14T05:13:17.372Z,101489.38
2023-05-14T05:16:06.546Z,101481.50
2023-05-14T05:18:54.365Z,101476.69
2023-05-14T05:21:42.453Z,101483.38
2023-05-14T05:24:31.499Z,101480.44
2023-05-14T05:27:18.104Z,101477.59
2023-05-14T05:30:05.543Z,101477.84
2023-05-14T05:32:52.407Z,101474.72
2023-05-14T05:35:40.581Z,101467.81
2023-05-14T05:38:27.202Z,101473.28
2023-05-14T05:42:28.365Z,101464.81
2023-05-14T05:45:15.271Z,101468.56
2023-05-14T05:48:02.216Z,101474.81
2023-05-14T05:50:51.604Z,101472.31
2023-05-14T05:53:38.489Z,101476.94
2023-05-14T05:56:25.395Z,101479.50
2023-05-14T05:59:12.351Z,101476.91
2023-05-14T06:07:57.400Z,101476.56
2023-05-14T06:10:47.518Z,101440.41
2023-05-14T06:13:34.346Z,101481.63
2023-05-14T06:16:21.380Z,101465.22
2023-05-14T06:19:08.511Z,101471.59
2023-05-14T06:21:54.978Z,101470.63
2023-05-14T06:24:41.951Z,101463.66
2023-05-14T06:27:29.972Z,101469.03
2023-05-14T06:30:16.868Z,101468.63
2023-05-14T06:33:03.950Z,101468.81
2023-05-14T06:35:50.530Z,101464.38
2023-05-14T06:38:37.456Z,101474.88
2023-05-14T06:41:24.193Z,101467.88
2023-05-14T06:44:12.531Z,101462.34
2023-05-14T06:46:59.443Z,101468.50
2023-05-14T06:49:46.430Z,101463.38
2023-05-14T06:52:33.320Z,101456.97
2023-05-14T06:55:20.146Z,101455.94
2023-05-14T06:58:07.498Z,101461.91
2023-05-14T07:00:55.477Z,101467.00
2023-05-14T07:03:42.074Z,101459.03
2023-05-14T07:06:28.781Z,101464.06
2023-05-14T07:09:15.598Z,101463.28
2023-05-14T07:12:02.545Z,101465.72
2023-05-14T07:14:50.138Z,101455.13
2023-05-14T07:17:38.091Z,101448.47
2023-05-14T07:20:25.388Z,101456.09
2023-05-14T07:23:12.071Z,101453.25
2023-05-14T07:25:59.009Z,101460.59
2023-05-14T07:28:46.201Z,101450.19
2023-05-14T07:31:32.911Z,101451.16
2023-05-14T07:34:21.174Z,101449.31
2023-05-14T07:37:08.076Z,101438.53
2023-05-14T07:40:53.982Z,101439.97
2023-05-14T07:43:41.321Z,101443.25
2023-05-14T07:46:28.062Z,101437.00
2023-05-14T07:49:14.738Z,101440.78
2023-05-14T07:52:03.039Z,101433.66
2023-05-14T07:54:50.672Z,101441.00
2023-05-14T07:57:38.446Z,101440.91
2023-05-14T08:00:25.461Z,101436.22
2023-05-14T08:03:12.747Z,101430.94
2023-05-14T08:05:59.689Z,101422.97
2023-05-14T08:08:47.906Z,101420.66
2023-05-14T08:11:34.731Z,101413.69
2023-05-14T08:14:22.142Z,101432.44
2023-05-14T08:17:08.969Z,101432.56
2023-05-14T08:19:55.609Z,101425.00
2023-05-14T08:22:42.282Z,101421.69
2023-05-14T08:25:30.631Z,101420.75
2023-05-14T08:28:17.095Z,101425.84
2023-05-14T08:31:04.071Z,101423.81
2023-05-14T08:33:51.077Z,101413.09
2023-05-14T08:36:37.708Z,101420.34
2023-05-14T08:39:24.424Z,101417.47
2023-05-14T08:42:14.219Z,101406.66
2023-05-14T08:45:02.829Z,101409.59
2023-05-14T08:47:51.454Z,101408.25
2023-05-14T08:50:38.584Z,101406.22
2023-05-14T08:53:25.275Z,101403.81
2023-05-14T08:56:13.336Z,101409.69
2023-05-14T08:59:01.842Z,101408.34
2023-05-14T09:01:49.663Z,101396.91
2023-05-14T09:04:37.655Z,101401.22
2023-05-14T09:07:52.142Z,101398.84
2023-05-14T09:10:40.781Z,101386.88
2023-05-14T09:13:32.059Z,101387.00
2023-05-14T09:16:23.691Z,101384.41
2023-05-14T09:19:14.039Z,101386.78
2023-05-14T09:22:13.066Z,101378.66
2023-05-14T09:25:07.263Z,101371.09
2023-05-14T09:27:56.691Z,101366.47
2023-05-14T09:30:49.303Z,101362.31
2023-05-14T09:33:37.154Z,101360.84
2023-05-14T09:36:25.120Z,101352.31
2023-05-14T09:39:11.912Z,101342.91
2023-05-14T09:41:59.058Z,101343.50
2023-05-14T09:44:47.490Z,101335.97
2023-05-14T09:47:34.260Z,101332.19
2023-05-14T09:50:22.934Z,101340.28
2023-05-14T09:53:09.763Z,101326.66
2023-05-14T09:55:56.784Z,101321.91
2023-05-14T09:58:46.245Z,101327.41
2023-05-14T10:01:34.096Z,101313.03
2023-05-14T10:04:21.653Z,101321.41
2023-05-14T10:07:10.046Z,101310.59
2023-05-14T10:10:03.767Z,101308.66
2023-05-14T10:12:54.727Z,101309.91
2023-05-14T10:15:44.506Z,101301.53
2023-05-14T10:18:35.730Z,101298.06
2023-05-14T10:21:54.415Z,101292.56
2023-05-14T10:24:42.727Z,101283.56
2023-05-14T10:27:30.231Z,101287.28
2023-05-14T10:30:17.282Z,101278.91
2023-05-14T10:33:09.315Z,101269.44
2023-05-14T10:35:59.071Z,101269.94
2023-05-14T10:38:45.826Z,101278.53
2023-05-14T10:41:35.371Z,101250.00
2023-05-14T10:44:22.748Z,101261.69
2023-05-14T10:47:09.408Z,101257.25
2023-05-14T10:49:58.647Z,101262.75
2023-05-14T10:52:46.281Z,101264.03
2023-05-14T10:55:33.328Z,101251.66
2023-05-14T10:58:22.460Z,101251.09
2023-05-14T11:01:13.210Z,101241.78
2023-05-14T11:03:59.721Z,101247.03
2023-05-14T11:06:53.102Z,101239.91
2023-05-14T11:09:39.931Z,101245.94
2023-05-14T11:12:28.055Z,101201.44
2023-05-14T11:15:21.836Z,101226.72
2023-05-14T11:18:11.721Z,101236.84
2023-05-14T11:21:00.315Z,101234.19
2023-05-14T11:23:48.334Z,101229.16
2023-05-14T11:26:35.428Z,101225.97
2023-05-14T11:29:21.860Z,101213.94
2023-05-14T11:32:10.477Z,101208.34
2023-05-14T11:34:57.175Z,101208.75
2023-05-14T11:37:43.995Z,101203.69
2023-05-14T11:40:30.566Z,101202.91
2023-05-14T11:43:17.528Z,101199.22
2023-05-14T11:46:05.098Z,101191.53
2023-05-14T11:48:53.078Z,101195.00
2023-05-14T11:51:39.766Z,101177.81
2023-05-14T11:54:28.410Z,101183.38
2023-05-14T11:57:17.301Z,101173.34
2023-05-14T12:00:06.199Z,101171.25
2023-05-14T12:02:52.998Z,101165.34
2023-05-14T12:05:41.281Z,101159.94
2023-05-14T12:08:29.153Z,101164.84
2023-05-14T12:11:15.761Z,101159.47
2023-05-14T12:14:02.985Z,101156.13
2023-05-14T12:16:52.881Z,101156.91
2023-05-14T12:19:42.075Z,101157.31
2023-05-14T12:22:31.077Z,101144.34
2023-05-14T12:25:17.928Z,101159.78
2023-05-14T12:28:15.923Z,101155.06
2023-05-14T12:31:02.688Z,101159.63
2023-05-14T12:33:49.267Z,101163.63
2023-05-14T12:36:36.276Z,101156.97
2023-05-14T12:39:25.139Z,101160.31
2023-05-14T12:42:11.734Z,101154.34
2023-05-14T12:44:59.213Z,101145.22
2023-05-14T12:47:46.318Z,101148.94
2023-05-14T12:50:33.393Z,101143.41
2023-05-14T12:53:22.440Z,101143.03
2023-05-14T12:56:10.998Z,101137.56
2023-05-14T12:58:57.693Z,101090.19
2023-05-14T13:01:44.256Z,101128.75
2023-05-14T13:04:31.146Z,101136.44
2023-05-14T13:07:17.823Z,101128.19
2023-05-14T13:10:05.905Z,101134.44
2023-05-14T13:12:54.173Z,101124.25
2023-05-14T13:15:40.695Z,101121.44
2023-05-14T13:18:27.669Z,101117.81
2023-05-14T13:21:14.312Z,101112.16
2023-05-14T13:24:01.196Z,101113.28
2023-05-14T13:26:48.214Z,101108.06
2023-05-14T13:29:37.780Z,101101.50
2023-05-14T13:32:24.560Z,101103.06
2023-05-14T13:35:11.693Z,101099.38
2023-05-14T13:38:00.545Z,101096.22
2023-05-14T13:40:46.986Z,101100.69
2023-05-14T13:43:36.292Z,101088.47
2023-05-14T13:46:24.881Z,101088.34
2023-05-14T13:49:14.574Z,101084.19
2023-05-14T13:52:01.463Z,101089.22
2023-05-14T13:54:48.448Z,101080.78
2023-05-14T13:57:34.979Z,101080.22
2023-05-14T14:00:22.048Z,101088.06
2023-05-14T14:03:10.776Z,101077.19
2023-05-14T14:05:57.274Z,101076.63
2023-05-14T14:08:44.083Z,101077.88
2023-05-14T14:11:30.838Z,101075.13
2023-05-14T14:14:18.423Z,101064.22
2023-05-14T14:17:05.353Z,101064.50
2023-05-14T14:19:54.347Z,101063.00
2023-05-14T14:22:41.451Z,101060.53
2023-05-14T14:25:28.031Z,101065.50
2023-05-14T14:28:14.858Z,101058.13
2023-05-14T14:31:01.671Z,101058.63
2023-05-14T14:33:48.510Z,101053.16
2023-05-14T14:36:36.848Z,101052.69
2023-05-14T14:39:25.421Z,101052.13
2023-05-14T14:42:12.182Z,101042.91
2023-05-14T14:44:59.059Z,101046.63
2023-05-14T14:47:47.163Z,101044.66
2023-05-14T14:50:37.033Z,101042.84
2023-05-14T14:53:25.720Z,101041.09
2023-05-14T14:56:15.098Z,101040.00
2023-05-14T14:59:02.479Z,101039.00
2023-05-14T15:01:49.508Z,101028.03
2023-05-14T15:04:39.080Z,101030.34
2023-05-14T15:07:26.159Z,101029.25
2023-05-14T15:10:14.104Z,101025.63
2023-05-14T15:13:01.246Z,101032.25
2023-05-14T15:15:50.289Z,101025.88
2023-05-14T15:18:36.800Z,101020.22
2023-05-14T15:21:26.040Z,101024.28
2023-05-14T15:24:13.927Z,101023.03
2023-05-14T15:27:01.768Z,101013.13
2023-05-14T15:29:48.747Z,101010.41
2023-05-14T15:32:35.895Z,101012.84
2023-05-14T15:40:14.275Z,101006.47
2023-05-14T15:43:02.986Z,101002.41
2023-05-14T15:45:50.448Z,100999.09
2023-05-14T15:48:37.172Z,100996.53
2023-05-14T15:51:24.173Z,100999.00
2023-05-14T15:54:11.159Z,100985.97
2023-05-14T15:56:57.899Z,100993.22
2023-05-14T15:59:46.527Z,100986.09
2023-05-14T16:02:33.500Z,100984.50
2023-05-14T16:05:20.384Z,100978.72
2023-05-14T16:08:07.521Z,100979.72
2023-05-14T16:10:54.564Z,100974.91
2023-05-14T16:13:41.726Z,100971.22
2023-05-14T16:16:29.808Z,100967.38
2023-05-14T16:19:17.798Z,100936.03
2023-05-14T16:22:04.457Z,100964.03
2023-05-14T16:24:51.490Z,100967.47
2023-05-14T16:27:38.602Z,100964.78
2023-05-14T16:30:25.710Z,100963.25
2023-05-14T16:34:26.822Z,100957.59
2023-05-14T16:37:15.163Z,100960.06
2023-05-14T16:40:04.143Z,100963.09
2023-05-14T16:42:51.292Z,100956.13
2023-05-14T16:45:40.364Z,100950.31
2023-05-14T16:48:27.835Z,100943.88
2023-05-14T16:51:18.447Z,100953.47
2023-05-14T16:54:11.639Z,100953.53
2023-05-14T16:57:00.771Z,100950.41
2023-05-14T16:59:47.499Z,100943.53
2023-05-14T17:03:24.023Z,100947.41
2023-05-14T17:06:11.375Z,100951.53
2023-05-14T17:08:58.415Z,100947.38
2023-05-14T17:11:46.718Z,100945.16
2023-05-14T17:14:33.169Z,100941.50
2023-05-14T17:17:20.093Z,100945.06
2023-05-14T17:20:08.216Z,100941.38
2023-05-14T17:22:57.514Z,100945.47
2023-05-14T17:25:43.976Z,100949.88
2023-05-14T17:28:32.173Z,100937.28
2023-05-14T17:31:19.127Z,100946.22
2023-05-14T17:34:05.905Z,100939.88
2023-05-14T17:36:52.834Z,100939.09
2023-05-14T17:39:39.826Z,100946.81
2023-05-14T17:42:27.524Z,100941.72
2023-05-14T17:45:20.860Z,100943.47
2023-05-14T17:48:10.739Z,100943.78
2023-05-14T17:50:59.671Z,100939.88
2023-05-14T17:53:46.640Z,100940.22
2023-05-14T17:56:36.058Z,100936.78
2023-05-14T17:59:47.330Z,100938.91
2023-05-14T18:02:35.931Z,100941.03
2023-05-14T18:08:47.551Z,100945.72
2023-05-14T18:11:34.805Z,100942.22
2023-05-14T18:14:21.600Z,100944.59
2023-05-14T18:17:10.999Z,100944.75
2023-05-14T18:20:03.367Z,100949.00
2023-05-14T18:22:50.809Z,100944.22
2023-05-14T18:25:37.859Z,100948.47
2023-05-14T18:28:24.462Z,100948.84
2023-05-14T18:31:11.635Z,100944.66
2023-05-14T18:33:58.228Z,100939.00
2023-05-14T18:36:46.496Z,100942.31
2023-05-14T18:39:35.505Z,100944.06
2023-05-14T18:42:47.425Z,100944.25
2023-05-14T18:45:34.614Z,100951.63
2023-05-14T18:48:21.525Z,100946.16
2023-05-14T18:51:08.361Z,100946.84
2023-05-14T18:53:56.707Z,100954.50
2023-05-14T18:56:47.768Z,100953.06
2023-05-14T18:59:35.642Z,100952.44
2023-05-14T19:02:22.468Z,100953.50
2023-05-14T19:05:09.652Z,100959.16
2023-05-14T19:07:58.146Z,100955.78
2023-05-14T19:10:46.508Z,100952.63
2023-05-14T19:13:35.408Z,100957.41
2023-05-14T19:16:24.888Z,100956.72
2023-05-14T19:19:14.439Z,100953.88
2023-05-14T19:22:06.359Z,100959.22
2023-05-14T19:24:53.728Z,100958.81
2023-05-14T19:28:01.223Z,100952.88
2023-05-14T19:30:57.006Z,100956.06
2023-05-14T19:33:43.639Z,100953.28
2023-05-14T19:36:31.659Z,100952.88
2023-05-14T19:39:18.665Z,100949.78
2023-05-14T19:42:08.311Z,100952.75
2023-05-14T19:44:59.883Z,100942.19
2023-05-14T19:47:49.166Z,100939.69
2023-05-14T19:50:38.737Z,100943.44
2023-05-14T19:53:30.114Z,100936.44
2023-05-14T19:56:21.444Z,100934.63
2023-05-14T19:59:07.941Z,100939.38
2023-05-14T20:01:59.064Z,100929.72
2023-05-14T20:04:49.640Z,100928.56
2023-05-14T20:07:41.102Z,100921.63
2023-05-14T20:10:30.002Z,100924.13
2023-05-14T20:13:16.644Z,100915.28
2023-05-14T20:16:04.286Z,100923.41
2023-05-14T20:18:55.009Z,100917.00
2023-05-14T20:21:44.684Z,100917.44
2023-05-14T20:24:35.471Z,100918.56
2023-05-14T20:27:23.047Z,100916.25
2023-05-14T20:30:10.532Z,100912.19
2023-05-14T20:32:57.349Z,100917.38
2023-05-14T20:35:48.590Z,100901.88
2023-05-14T20:38:35.721Z,100914.66
2023-05-14T20:41:22.670Z,100913.28
2023-05-14T20:44:09.708Z,100908.97
2023-05-14T20:46:59.087Z,100900.94
2023-05-14T20:49:45.627Z,100895.94
2023-05-14T20:52:36.320Z,100893.78
2023-05-14T20:55:23.364Z,100891.78
2023-05-14T20:58:19.139Z,100884.03
2023-05-14T21:01:10.047Z,100884.63
2023-05-14T21:03:56.826Z,100886.75
2023-05-14T21:06:43.675Z,100879.91
2023-05-14T21:09:34.091Z,100886.63
2023-05-14T21:12:22.955Z,100874.88
2023-05-14T21:15:10.968Z,100872.06
2023-05-14T21:17:58.714Z,100874.84
2023-05-14T21:20:45.654Z,100870.59
2023-05-14T21:23:34.864Z,100869.75
2023-05-14T21:26:25.434Z,100813.53
2023-05-14T21:29:12.853Z,100864.59
2023-05-14T21:32:02.038Z,100844.03
2023-05-14T21:34:49.076Z,100856.44
2023-05-14T21:37:36.135Z,100855.25
2023-05-14T21:40:22.933Z,100855.97
2023-05-14T21:43:13.298Z,100858.78
2023-05-14T21:46:02.323Z,100850.78
2023-05-14T21:48:49.850Z,100848.34
2023-05-14T21:51:36.880Z,100855.66
2023-05-14T21:54:23.765Z,100845.84
2023-05-14T21:57:13.622Z,100848.44
2023-05-14T22:00:04.878Z,100845.28
2023-05-14T22:02:55.413Z,100835.66
2023-05-14T22:05:41.960Z,100842.06
2023-05-14T22:08:29.729Z,100845.91
2023-05-14T22:11:16.782Z,100839.31
2023-05-14T22:14:08.553Z,100830.81
2023-05-14T22:16:58.876Z,100832.22
2023-05-14T22:19:45.670Z,100828.31
2023-05-14T22:22:32.386Z,100830.59
2023-05-14T22:25:19.327Z,100829.53
2023-05-14T22:28:08.850Z,100824.91
2023-05-14T22:30:57.447Z,100821.44
2023-05-14T22:33:45.401Z,100827.41
2023-05-14T22:36:32.218Z,100818.28
2023-05-14T22:39:20.740Z,100813.81
2023-05-14T22:42:07.621Z,100815.28
2023-05-14T22:44:56.688Z,100816.22
2023-05-14T22:47:45.655Z,100811.38
2023-05-14T22:50:33.962Z,100808.78
2023-05-14T22:53:20.730Z,100809.94
2023-05-14T22:56:07.961Z,100804.19
2023-05-14T22:58:57.072Z,100805.31
2023-05-14T23:01:43.704Z,100805.31
2023-05-14T23:04:30.678Z,100793.88
2023-05-14T23:07:18.760Z,100796.03
2023-05-14T23:10:06.225Z,100793.56
2023-05-14T23:12:56.993Z,100789.38
2023-05-14T23:15:45.426Z,100778.94
2023-05-14T23:18:34.576Z,100776.13
2023-05-14T23:21:21.485Z,100782.19
2023-05-14T23:24:10.121Z,100773.94
2023-05-14T23:26:56.982Z,100772.28
2023-05-14T23:29:43.697Z,100775.66
2023-05-14T23:32:32.944Z,100772.28
2023-05-14T23:35:19.932Z,100763.56
2023-05-14T23:38:07.352Z,100768.88
2023-05-14T23:40:55.390Z,100758.78
2023-05-14T23:43:42.268Z,100758.97
2023-05-14T23:46:29.528Z,100752.25
2023-05-14T23:49:16.242Z,100748.13
2023-05-14T23:52:03.367Z,100744.97
2023-05-14T23:54:49.917Z,100742.44
2023-05-14T23:57:38.286Z,100743.63
